createdAt,value
2023-05-30T00:02:15.516Z,13.50
2023-05-30T00:04:46.293Z,13.50
2023-05-30T00:07:18.591Z,13.40
2023-05-30T00:09:49.260Z,13.40
2023-05-30T00:12:19.958Z,13.50
2023-05-30T00:14:50.572Z,13.40
2023-05-30T00:17:21.842Z,13.30
2023-05-30T00:19:53.800Z,13.30
2023-05-30T00:22:24.566Z,13.20
2023-05-30T00:24:55.331Z,13.20
2023-05-30T00:27:26.517Z,13.20
2023-05-30T00:29:57.682Z,13.40
2023-05-30T00:32:28.449Z,13.40
2023-05-30T00:34:59.138Z,13.50
2023-05-30T00:37:29.932Z,13.40
2023-05-30T00:40:00.800Z,13.40
2023-05-30T00:42:31.841Z,13.40
2023-05-30T00:45:02.569Z,13.40
2023-05-30T00:47:33.749Z,13.60
2023-05-30T00:50:04.736Z,13.60
2023-05-30T00:52:36.241Z,13.80
2023-05-30T00:55:08.246Z,13.90
2023-05-30T00:57:41.133Z,13.80
2023-05-30T01:00:14.653Z,13.90
2023-05-30T01:02:46.848Z,13.80
2023-05-30T01:05:17.633Z,13.90
2023-05-30T01:07:49.509Z,14.00
2023-05-30T01:10:20.786Z,13.90
2023-05-30T01:12:57.007Z,13.80
2023-05-30T01:15:30.975Z,13.80
2023-05-30T01:18:05.692Z,13.90
2023-05-30T01:20:39.732Z,13.80
2023-05-30T01:23:40.633Z,13.70
2023-05-30T01:26:18.608Z,13.60
2023-05-30T01:28:52.500Z,13.40
2023-05-30T01:31:23.773Z,13.40
2023-05-30T01:33:56.046Z,13.40
2023-05-30T01:36:28.013Z,13.40
2023-05-30T01:38:58.654Z,13.30
2023-05-30T01:41:33.225Z,13.20
2023-05-30T01:44:08.501Z,13.30
2023-05-30T01:46:41.710Z,13.50
2023-05-30T01:49:17.154Z,13.40
2023-05-30T01:51:52.269Z,13.20
2023-05-30T01:54:24.208Z,13.20
2023-05-30T01:56:58.620Z,13.10
2023-05-30T01:59:30.545Z,13.10
2023-05-30T02:02:03.068Z,13.10
2023-05-30T02:04:34.784Z,13.20
2023-05-30T02:07:05.800Z,13.10
2023-05-30T02:09:36.695Z,13.00
2023-05-30T02:12:09.420Z,13.00
2023-05-30T02:14:40.287Z,13.10
2023-05-30T02:17:10.990Z,13.30
2023-05-30T02:19:41.692Z,13.40
2023-05-30T02:22:13.547Z,13.40
2023-05-30T02:24:44.234Z,13.40
2023-05-30T02:27:14.924Z,13.50
2023-05-30T02:29:45.634Z,13.70
2023-05-30T02:32:16.426Z,13.90
2023-05-30T02:34:47.595Z,14.00
2023-05-30T02:37:18.492Z,14.10
2023-05-30T02:39:49.144Z,14.10
2023-05-30T02:42:19.813Z,14.10
2023-05-30T02:44:50.466Z,14.10
2023-05-30T02:47:21.168Z,14.20
2023-05-30T02:49:51.957Z,14.20
2023-05-30T02:52:23.641Z,14.20
2023-05-30T02:54:54.335Z,14.30
2023-05-30T02:57:24.973Z,14.30
2023-05-30T02:59:55.629Z,14.30
2023-05-30T03:02:26.401Z,14.30
2023-05-30T03:04:57.155Z,14.30
2023-05-30T03:07:28.309Z,14.40
2023-05-30T03:09:59.213Z,14.30
2023-05-30T03:12:29.982Z,14.30
2023-05-30T03:15:01.109Z,14.10
2023-05-30T03:17:31.747Z,14.10
2023-05-30T03:20:02.687Z,14.10
2023-05-30T03:22:33.575Z,14.10
2023-05-30T03:25:04.360Z,14.10
2023-05-30T03:27:35.049Z,14.10
2023-05-30T03:30:07.113Z,14.10
2023-05-30T03:32:37.815Z,14.20
2023-05-30T03:35:11.020Z,14.20
2023-05-30T03:37:41.724Z,14.20
2023-05-30T03:40:14.920Z,14.20
2023-05-30T03:42:46.875Z,14.20
2023-05-30T03:45:17.707Z,14.20
2023-05-30T03:47:48.520Z,14.20
2023-05-30T03:50:19.478Z,14.20
2023-05-30T03:52:50.217Z,14.20
2023-05-30T03:55:21.456Z,14.10
2023-05-30T03:57:52.084Z,14.10
2023-05-30T04:00:22.851Z,14.10
2023-05-30T04:02:53.649Z,14.10
2023-05-30T04:05:24.793Z,14.10
2023-05-30T04:07:55.541Z,14.10
2023-05-30T04:10:26.224Z,14.10
2023-05-30T04:12:57.123Z,14.10
2023-05-30T04:15:27.784Z,14.00
2023-05-30T04:17:59.345Z,14.00
2023-05-30T04:20:30.684Z,14.00
2023-05-30T04:23:01.840Z,14.00
2023-05-30T04:25:32.490Z,14.00
2023-05-30T04:28:04.794Z,13.90
2023-05-30T04:30:35.682Z,13.80
2023-05-30T04:33:06.865Z,13.90
2023-05-30T04:35:37.746Z,13.80
2023-05-30T04:38:08.360Z,13.80
2023-05-30T04:40:39.065Z,13.80
2023-05-30T04:43:09.921Z,13.90
2023-05-30T04:45:40.581Z,14.00
2023-05-30T04:48:11.674Z,13.90
2023-05-30T04:50:42.350Z,13.90
2023-05-30T04:53:13.193Z,13.90
2023-05-30T04:55:45.361Z,14.00
2023-05-30T04:58:24.611Z,14.00
2023-05-30T05:00:57.084Z,14.10
2023-05-30T05:03:28.145Z,14.20
2023-05-30T05:05:59.371Z,14.20
2023-05-30T05:08:30.789Z,14.30
2023-05-30T05:11:01.858Z,14.20
2023-05-30T05:13:32.533Z,14.30
2023-05-30T05:16:05.905Z,14.30
2023-05-30T05:18:36.610Z,14.30
2023-05-30T05:21:09.050Z,14.30
2023-05-30T05:23:39.892Z,14.40
2023-05-30T05:26:10.754Z,14.40
2023-05-30T05:28:41.496Z,14.50
2023-05-30T05:31:12.178Z,14.60
2023-05-30T05:33:43.486Z,14.50
2023-05-30T05:36:14.367Z,14.50
2023-05-30T05:38:44.953Z,14.70
2023-05-30T05:41:15.634Z,14.80
2023-05-30T05:43:46.304Z,14.80
2023-05-30T05:46:17.027Z,14.90
2023-05-30T05:48:47.718Z,14.70
2023-05-30T05:51:18.419Z,14.70
2023-05-30T05:53:49.147Z,14.80
2023-05-30T05:56:19.750Z,14.90
2023-05-30T05:58:51.255Z,14.90
2023-05-30T06:01:21.951Z,14.90
2023-05-30T06:03:52.802Z,14.80
2023-05-30T06:06:23.599Z,14.80
2023-05-30T06:08:54.256Z,14.80
2023-05-30T06:11:24.890Z,14.90
2023-05-30T06:13:55.636Z,14.90
2023-05-30T06:16:26.443Z,15.00
2023-05-30T06:18:57.383Z,15.10
2023-05-30T06:21:28.174Z,15.10
2023-05-30T06:23:58.922Z,15.20
2023-05-30T06:26:29.619Z,15.30
2023-05-30T06:29:00.326Z,15.30
2023-05-30T06:31:31.044Z,15.40
2023-05-30T06:34:01.751Z,15.50
2023-05-30T06:36:32.966Z,15.50
2023-05-30T06:39:03.936Z,15.40
2023-05-30T06:41:36.046Z,15.50
2023-05-30T06:44:06.832Z,15.50
2023-05-30T06:46:37.607Z,15.60
2023-05-30T06:49:08.489Z,15.80
2023-05-30T06:51:39.113Z,15.70
2023-05-30T06:54:09.844Z,15.80
2023-05-30T06:56:40.499Z,15.90
2023-05-30T06:59:11.415Z,16.10
2023-05-30T07:01:42.283Z,16.10
2023-05-30T07:04:13.077Z,16.30
2023-05-30T07:06:43.781Z,16.30
2023-05-30T07:09:14.441Z,16.30
2023-05-30T07:11:45.075Z,16.50
2023-05-30T07:14:15.840Z,16.50
2023-05-30T07:16:46.987Z,16.70
2023-05-30T07:19:17.997Z,16.60
2023-05-30T07:21:48.840Z,17.00
2023-05-30T07:24:19.499Z,17.20
2023-05-30T07:26:50.744Z,17.20
2023-05-30T07:29:21.474Z,17.10
2023-05-30T07:31:52.113Z,16.90
2023-05-30T07:34:22.888Z,17.20
2023-05-30T07:36:53.526Z,17.20
2023-05-30T07:39:24.155Z,17.40
2023-05-30T07:41:54.758Z,17.70
2023-05-30T07:44:25.536Z,17.80
2023-05-30T07:46:56.913Z,17.90
2023-05-30T07:49:27.547Z,18.10
2023-05-30T07:51:58.196Z,18.00
2023-05-30T07:54:28.820Z,18.30
2023-05-30T07:56:59.534Z,18.60
2023-05-30T07:59:30.230Z,18.90
2023-05-30T08:02:02.741Z,19.20
2023-05-30T08:04:33.261Z,19.20
2023-05-30T08:07:04.320Z,19.20
2023-05-30T08:09:37.194Z,18.90
2023-05-30T08:12:11.632Z,19.00
2023-05-30T08:14:42.360Z,19.10
2023-05-30T08:17:14.397Z,19.00
2023-05-30T08:19:46.385Z,19.00
2023-05-30T08:22:17.084Z,19.40
2023-05-30T08:24:49.242Z,19.70
2023-05-30T08:27:20.914Z,19.50
2023-05-30T08:29:58.082Z,19.80
2023-05-30T08:32:29.121Z,20.00
2023-05-30T08:34:59.998Z,19.90
2023-05-30T08:37:30.720Z,19.80
2023-05-30T08:40:01.408Z,19.70
2023-05-30T08:42:32.217Z,20.00
2023-05-30T08:45:02.945Z,20.30
2023-05-30T08:47:34.301Z,20.50
2023-05-30T08:50:08.442Z,20.70
2023-05-30T08:52:40.728Z,20.60
2023-05-30T08:55:13.878Z,20.40
2023-05-30T08:57:48.133Z,20.30
2023-05-30T09:00:20.363Z,20.70
2023-05-30T09:02:54.988Z,21.30
2023-05-30T09:05:26.387Z,21.30
2023-05-30T09:07:58.397Z,21.40
2023-05-30T09:10:30.301Z,21.40
2023-05-30T09:13:01.353Z,21.30
2023-05-30T09:15:32.200Z,21.60
2023-05-30T09:18:03.907Z,21.70
2023-05-30T09:20:35.364Z,21.90
2023-05-30T09:23:06.604Z,21.40
2023-05-30T09:25:44.946Z,21.40
2023-05-30T09:28:16.580Z,21.80
2023-05-30T09:31:00.921Z,22.10
2023-05-30T09:33:46.681Z,22.30
2023-05-30T09:36:20.478Z,21.90
2023-05-30T09:38:58.867Z,21.90
2023-05-30T09:41:30.840Z,22.00
2023-05-30T09:44:03.531Z,21.90
2023-05-30T09:46:36.035Z,22.20
2023-05-30T09:49:15.059Z,22.20
2023-05-30T09:51:45.914Z,22.00
2023-05-30T09:54:18.619Z,22.20
2023-05-30T09:56:49.425Z,22.90
2023-05-30T09:59:20.186Z,23.60
2023-05-30T10:01:51.571Z,23.60
2023-05-30T10:04:24.843Z,23.50
2023-05-30T10:06:56.837Z,23.70
2023-05-30T10:09:28.165Z,23.60
2023-05-30T10:12:00.615Z,23.60
2023-05-30T10:14:31.544Z,23.90
2023-05-30T10:17:05.615Z,24.10
2023-05-30T10:19:41.365Z,24.40
2023-05-30T10:22:14.432Z,25.00
2023-05-30T10:24:47.659Z,25.00
2023-05-30T10:27:22.176Z,25.20
2023-05-30T10:29:56.307Z,24.70
2023-05-30T10:32:29.385Z,24.30
2023-05-30T10:35:03.200Z,24.40
2023-05-30T10:37:34.313Z,24.50
2023-05-30T10:40:16.856Z,24.90
2023-05-30T10:42:52.403Z,24.60
2023-05-30T10:45:27.501Z,24.80
2023-05-30T10:48:19.702Z,25.30
2023-05-30T10:50:53.854Z,25.60
2023-05-30T10:53:24.917Z,25.00
2023-05-30T10:55:56.640Z,25.20
2023-05-30T11:01:30.644Z,25.00
2023-05-30T11:04:05.068Z,25.70
2023-05-30T11:06:38.165Z,25.90
2023-05-30T11:09:10.903Z,25.80
2023-05-30T11:11:44.913Z,26.00
2023-05-30T11:14:17.243Z,26.40
2023-05-30T11:16:59.442Z,26.00
2023-05-30T11:19:32.258Z,26.30
2023-05-30T11:22:05.472Z,26.70
2023-05-30T11:24:36.250Z,26.70
2023-05-30T11:27:15.981Z,26.40
2023-05-30T11:29:51.034Z,26.60
2023-05-30T11:32:24.890Z,26.90
2023-05-30T11:35:05.976Z,27.10
2023-05-30T11:37:37.013Z,27.60
2023-05-30T11:40:12.395Z,27.50
2023-05-30T11:42:43.352Z,27.70
2023-05-30T11:45:16.381Z,27.90
2023-05-30T11:47:48.316Z,28.10
2023-05-30T11:50:20.358Z,27.40
2023-05-30T11:52:51.325Z,27.30
2023-05-30T11:55:22.827Z,27.60
2023-05-30T12:00:26.910Z,27.70
2023-05-30T12:02:57.885Z,28.20
2023-05-30T12:05:28.887Z,28.10
2023-05-30T12:07:59.688Z,27.60
2023-05-30T12:10:34.129Z,28.00
2023-05-30T12:13:05.208Z,27.90
2023-05-30T12:15:37.357Z,27.70
2023-05-30T12:18:09.790Z,28.10
2023-05-30T12:20:46.885Z,27.70
2023-05-30T12:23:17.991Z,28.00
2023-05-30T12:25:54.183Z,28.70
2023-05-30T12:28:25.543Z,29.00
2023-05-30T12:30:56.947Z,29.00
2023-05-30T12:33:28.748Z,28.40
2023-05-30T12:35:59.714Z,28.00
2023-05-30T12:38:30.398Z,28.10
2023-05-30T12:41:01.301Z,27.80
2023-05-30T12:43:32.703Z,27.50
2023-05-30T12:46:05.002Z,27.80
2023-05-30T12:48:37.248Z,27.60
2023-05-30T12:51:08.610Z,28.50
2023-05-30T12:53:39.549Z,28.20
2023-05-30T12:56:12.290Z,28.20
2023-05-30T12:58:43.211Z,28.30
2023-05-30T13:01:14.850Z,27.60
2023-05-30T13:03:46.006Z,27.50
2023-05-30T13:06:16.982Z,28.40
2023-05-30T13:08:47.801Z,29.00
2023-05-30T13:11:18.738Z,29.00
2023-05-30T13:13:49.595Z,28.50
2023-05-30T13:16:20.404Z,28.40
2023-05-30T13:18:51.367Z,29.30
2023-05-30T13:21:23.542Z,29.50
2023-05-30T13:23:54.716Z,28.00
2023-05-30T13:26:26.739Z,28.00
2023-05-30T13:28:57.509Z,28.40
2023-05-30T13:33:58.255Z,28.60
2023-05-30T13:36:29.146Z,27.70
2023-05-30T13:38:59.987Z,28.20
2023-05-30T13:41:31.238Z,28.50
2023-05-30T13:44:02.675Z,27.20
2023-05-30T13:46:33.502Z,26.80
2023-05-30T13:49:05.809Z,27.10
2023-05-30T13:51:38.015Z,27.00
2023-05-30T13:54:09.270Z,26.70
2023-05-30T13:56:40.040Z,26.30
2023-05-30T13:59:10.853Z,26.30
2023-05-30T14:01:42.175Z,27.00
2023-05-30T14:04:13.070Z,26.30
2023-05-30T14:06:43.792Z,26.00
2023-05-30T14:09:14.824Z,25.80
2023-05-30T14:11:45.577Z,25.90
2023-05-30T14:14:16.332Z,26.80
2023-05-30T14:16:47.195Z,28.00
2023-05-30T14:19:18.171Z,28.60
2023-05-30T14:21:50.472Z,28.20
2023-05-30T14:24:21.712Z,28.70
2023-05-30T14:26:52.416Z,28.60
2023-05-30T14:29:23.051Z,28.10
2023-05-30T14:31:53.711Z,28.80
2023-05-30T14:34:24.560Z,29.00
2023-05-30T14:36:55.157Z,28.60
2023-05-30T14:39:26.208Z,28.20
2023-05-30T14:41:56.982Z,27.80
2023-05-30T14:44:27.801Z,27.30
2023-05-30T14:47:00.070Z,28.20
2023-05-30T14:49:30.912Z,28.30
2023-05-30T14:52:01.778Z,28.50
2023-05-30T14:54:32.702Z,28.20
2023-05-30T14:57:03.866Z,28.50
2023-05-30T14:59:35.828Z,28.20
2023-05-30T15:02:08.220Z,28.80
2023-05-30T15:04:39.237Z,29.00
2023-05-30T15:07:10.141Z,29.30
2023-05-30T15:09:40.955Z,29.20
2023-05-30T15:12:11.787Z,28.30
2023-05-30T15:14:42.407Z,28.50
2023-05-30T15:19:52.072Z,27.10
2023-05-30T15:22:22.794Z,26.80
2023-05-30T15:24:53.376Z,26.60
2023-05-30T15:27:24.009Z,27.40
2023-05-30T15:29:54.637Z,27.80
2023-05-30T15:32:25.800Z,27.80
2023-05-30T15:34:56.622Z,28.00
2023-05-30T15:37:27.279Z,28.10
2023-05-30T15:39:57.891Z,28.50
2023-05-30T15:42:28.599Z,28.00
2023-05-30T15:44:59.405Z,28.00
2023-05-30T15:47:30.167Z,28.30
2023-05-30T15:50:00.995Z,28.80
2023-05-30T15:52:31.771Z,28.60
2023-05-30T15:55:02.503Z,28.00
2023-05-30T15:57:33.292Z,28.50
2023-05-30T16:00:04.266Z,28.60
2023-05-30T16:02:34.997Z,28.70
2023-05-30T16:05:06.277Z,28.60
2023-05-30T16:07:36.980Z,28.70
2023-05-30T16:10:10.900Z,28.70
2023-05-30T16:12:41.721Z,28.10
2023-05-30T16:15:16.471Z,28.70
2023-05-30T16:17:47.224Z,28.60
2023-05-30T16:20:18.051Z,28.50
2023-05-30T16:22:49.139Z,28.30
2023-05-30T16:25:19.891Z,27.80
2023-05-30T16:27:50.735Z,27.80
2023-05-30T16:30:21.611Z,27.40
2023-05-30T16:32:52.400Z,26.70
2023-05-30T16:35:24.893Z,26.30
2023-05-30T16:37:55.835Z,25.80
2023-05-30T16:40:26.594Z,25.20
2023-05-30T16:42:57.310Z,24.90
2023-05-30T16:45:28.139Z,24.80
2023-05-30T16:47:58.932Z,24.80
2023-05-30T16:50:29.726Z,24.60
2023-05-30T16:53:00.584Z,24.30
2023-05-30T16:55:31.427Z,24.20
2023-05-30T16:58:02.149Z,24.30
2023-05-30T17:00:33.077Z,24.20
2023-05-30T17:03:04.181Z,24.00
2023-05-30T17:05:34.941Z,23.80
2023-05-30T17:08:06.341Z,23.80
2023-05-30T17:10:36.997Z,23.70
2023-05-30T17:13:09.285Z,23.70
2023-05-30T17:15:40.156Z,23.70
2023-05-30T17:18:10.930Z,23.60
2023-05-30T17:20:41.783Z,23.60
2023-05-30T17:23:12.723Z,23.60
2023-05-30T17:25:50.625Z,23.60
2023-05-30T17:28:16.002Z,23.50
2023-05-30T17:33:25.047Z,23.50
2023-05-30T17:35:56.861Z,23.50
2023-05-30T17:38:28.205Z,23.50
2023-05-30T17:40:59.076Z,23.40
2023-05-30T17:43:31.181Z,23.20
2023-05-30T17:46:02.082Z,23.30
2023-05-30T17:48:32.857Z,23.10
2023-05-30T17:51:04.416Z,23.10
2023-05-30T17:53:47.544Z,23.10
2023-05-30T17:56:09.107Z,22.90
2023-05-30T17:58:39.862Z,22.90
2023-05-30T18:01:10.681Z,22.70
2023-05-30T18:03:41.854Z,22.80
2023-05-30T18:06:25.291Z,22.70
2023-05-30T18:08:45.153Z,22.50
2023-05-30T18:11:15.940Z,22.50
2023-05-30T18:13:46.860Z,22.30
2023-05-30T18:16:17.839Z,22.20
2023-05-30T18:18:48.657Z,22.20
2023-05-30T18:21:19.372Z,22.10
2023-05-30T18:23:50.125Z,22.00
2023-05-30T18:26:20.845Z,21.90
2023-05-30T18:28:51.668Z,21.80
2023-05-30T18:31:22.429Z,21.60
2023-05-30T18:33:53.347Z,21.50
2023-05-30T18:36:24.230Z,21.60
2023-05-30T18:38:57.920Z,21.60
2023-05-30T18:41:28.861Z,21.60
2023-05-30T18:43:59.590Z,21.70
2023-05-30T18:46:30.598Z,21.60
2023-05-30T18:49:01.460Z,21.60
2023-05-30T18:51:33.735Z,21.50
2023-05-30T18:54:06.327Z,21.60
2023-05-30T18:56:37.932Z,21.60
2023-05-30T18:59:09.182Z,21.50
2023-05-30T19:01:39.839Z,21.50
2023-05-30T19:04:10.543Z,21.40
2023-05-30T19:06:41.311Z,21.50
2023-05-30T19:09:12.060Z,21.50
2023-05-30T19:11:42.929Z,21.50
2023-05-30T19:14:13.676Z,21.50
2023-05-30T19:16:44.434Z,21.50
2023-05-30T19:19:15.124Z,21.50
2023-05-30T19:21:45.865Z,21.40
2023-05-30T19:24:16.742Z,21.40
2023-05-30T19:26:47.556Z,21.40
2023-05-30T19:29:18.351Z,21.40
2023-05-30T19:31:49.229Z,21.30
2023-05-30T19:34:21.637Z,21.20
2023-05-30T19:36:52.517Z,21.00
2023-05-30T19:39:23.391Z,20.90
2023-05-30T19:41:54.220Z,20.80
2023-05-30T19:44:24.930Z,20.70
2023-05-30T19:46:55.753Z,20.60
2023-05-30T19:49:27.236Z,20.50
2023-05-30T19:51:58.310Z,20.50
2023-05-30T19:54:29.265Z,20.30
2023-05-30T19:57:00.196Z,19.90
2023-05-30T19:59:31.547Z,20.00
2023-05-30T20:02:02.491Z,20.10
2023-05-30T20:04:33.599Z,20.20
2023-05-30T20:07:04.893Z,20.30
2023-05-30T20:09:36.041Z,20.30
2023-05-30T20:12:07.760Z,20.20
2023-05-30T20:14:40.274Z,20.30
2023-05-30T20:17:11.272Z,20.20
2023-05-30T20:19:42.238Z,20.20
2023-05-30T20:22:13.014Z,19.80
2023-05-30T20:24:44.295Z,19.40
2023-05-30T20:27:18.444Z,19.30
2023-05-30T20:29:49.427Z,19.40
2023-05-30T20:32:20.160Z,19.30
2023-05-30T20:34:51.920Z,19.20
2023-05-30T20:37:22.685Z,19.40
2023-05-30T20:39:53.432Z,19.60
2023-05-30T20:42:24.300Z,19.30
2023-05-30T20:44:55.042Z,19.80
2023-05-30T20:47:28.248Z,19.70
2023-05-30T20:50:03.150Z,19.40
2023-05-30T20:52:34.257Z,19.30
2023-05-30T20:55:05.708Z,18.90
2023-05-30T20:57:36.563Z,18.90
2023-05-30T21:00:09.899Z,18.60
2023-05-30T21:02:40.746Z,18.40
2023-05-30T21:05:12.262Z,18.40
2023-05-30T21:07:43.159Z,18.30
2023-05-30T21:10:14.287Z,18.20
2023-05-30T21:12:44.993Z,18.20
2023-05-30T21:15:16.140Z,18.30
2023-05-30T21:17:46.876Z,18.60
2023-05-30T21:20:17.817Z,18.80
2023-05-30T21:22:48.587Z,18.50
2023-05-30T21:25:19.398Z,18.20
2023-05-30T21:27:50.001Z,18.10
2023-05-30T21:30:23.360Z,18.10
2023-05-30T21:32:53.139Z,18.00
2023-05-30T21:35:23.961Z,18.10
2023-05-30T21:37:54.689Z,18.10
2023-05-30T21:40:25.302Z,18.20
2023-05-30T21:42:56.100Z,18.30
2023-05-30T21:45:27.309Z,18.30
2023-05-30T21:47:58.094Z,18.20
2023-05-30T21:50:28.818Z,18.20
2023-05-30T21:52:59.579Z,18.20
2023-05-30T21:55:30.374Z,18.10
2023-05-30T21:58:01.347Z,17.90
2023-05-30T22:00:32.024Z,17.50
2023-05-30T22:03:02.855Z,17.30
2023-05-30T22:05:33.636Z,17.10
2023-05-30T22:08:04.283Z,17.00
2023-05-30T22:10:35.045Z,16.90
2023-05-30T22:13:05.842Z,16.90
2023-05-30T22:15:36.464Z,16.80
2023-05-30T22:18:07.720Z,16.90
2023-05-30T22:20:38.439Z,17.00
2023-05-30T22:23:09.178Z,17.10
2023-05-30T22:25:40.004Z,17.20
2023-05-30T22:28:10.830Z,17.20
2023-05-30T22:30:41.573Z,17.10
2023-05-30T22:33:12.456Z,17.00
2023-05-30T22:35:43.192Z,16.80
2023-05-30T22:38:13.844Z,16.70
2023-05-30T22:40:44.693Z,16.50
2023-05-30T22:43:15.308Z,16.80
2023-05-30T22:45:46.019Z,16.60
2023-05-30T22:48:17.142Z,16.50
2023-05-30T22:50:47.836Z,16.50
2023-05-30T22:53:18.616Z,16.50
2023-05-30T22:55:49.453Z,16.60
2023-05-30T22:58:20.024Z,16.50
2023-05-30T23:00:50.774Z,16.40
2023-05-30T23:03:21.627Z,16.30
2023-05-30T23:05:52.509Z,16.10
2023-05-30T23:08:23.154Z,16.00
2023-05-30T23:10:53.806Z,15.90
2023-05-30T23:13:24.767Z,15.90
2023-05-30T23:15:55.364Z,15.80
2023-05-30T23:18:26.140Z,15.60
2023-05-30T23:20:56.782Z,15.50
2023-05-30T23:23:27.503Z,15.50
2023-05-30T23:25:58.185Z,15.50
2023-05-30T23:28:28.855Z,15.30
2023-05-30T23:30:59.732Z,15.10
2023-05-30T23:33:30.878Z,15.00
2023-05-30T23:36:01.648Z,14.90
2023-05-30T23:38:33.008Z,15.00
2023-05-30T23:41:03.662Z,15.00
2023-05-30T23:43:34.397Z,15.10
2023-05-30T23:46:05.144Z,15.00
2023-05-30T23:48:35.914Z,15.10
2023-05-30T23:51:06.826Z,15.40
2023-05-30T23:53:37.881Z,15.70
2023-05-30T23:56:08.686Z,16.00
2023-05-30T23:58:39.245Z,16.30
